European Causeway — C6RG7 — position and weather

sailwx.info

Track history (hours):
 
Tides and Currents Weather Stations Pressure Air Temp Water Temp Dewpoint Dewpoint Depression Visibility Wind Speed Wind Dir Waves Ship Positions

European Causeway

Operator: P & O Irish Sea

Last reported at 2018-May-26 13:29 UTC. Time now 2018-May-26 13:50 UTC.
Position N 54°37' W 005°54'.

Length 145 m; draft 5.5 m.

Type: Ship (hazmat cat A). MMSI: 311027000.

Date/timePositionNaut miles runAvg speedWind from/ knotsBaromVisibWave heightAir tempDewpointWater temp
2018-May-26 13:29N 54°37' W 005°54'0 0.0
2018-May-26 13:00N 54°37' W 005°54'0 0.0
2018-May-26 12:27N 54°37' W 005°54'0 0.0
2018-May-26 11:58N 54°37' W 005°54'0 0.0
2018-May-26 11:29N 54°37' W 005°54'0 0.0
2018-May-26 11:00N 54°37' W 005°54'0 0.0
2018-May-26 10:28N 54°37' W 005°54'0 0.0
2018-May-26 09:58N 54°37' W 005°54'0 0.0
2018-May-26 09:28N 54°37' W 005°54'0 0.0
2018-May-26 08:59N 54°37' W 005°54'0 0.0
2018-May-26 08:30N 54°37' W 005°54'0 0.0
2018-May-26 07:59N 54°37' W 005°54'0 0.4
2018-May-26 07:30N 54°37' W 005°53'4 8.2
2018-May-26 07:00N 54°41' W 005°49'4 8.4
2018-May-26 06:31N 54°43' W 005°43'9 8.5
2018-May-26 05:29N 54°51' W 005°48'0 0.0
2018-May-26 05:00N 54°51' W 005°48'1 2.7
2018-May-26 04:30N 54°52' W 005°47'1019.7
2018-May-26 03:59N 54°56' W 005°31'1121.8
2018-May-26 03:30N 55°01' W 005°14'714.8
2018-May-26 03:00N 54°58' W 005°02'1 1.1
2018-May-26 02:25N 54°58' W 005°01'0 0.0
2018-May-26 01:55N 54°58' W 005°01'0 0.0
2018-May-26 01:07N 54°58' W 005°01'0 0.1
2018-May-26 00:49N 54°58' W 005°01'510.4
2018-May-26 00:20N 55°02' W 005°07'619.5
2018-May-26 00:00N 54°59' W 005°17'1020.2
2018-May-25 23:30N 54°55' W 005°33'918.1
2018-May-25 23:00N 54°52' W 005°48'1 1.4
2018-May-25 22:29N 54°51' W 005°48'0 0.0
2018-May-25 21:59N 54°51' W 005°48'0 0.0
2018-May-25 21:29N 54°51' W 005°48'0 0.0
2018-May-25 20:59N 54°51' W 005°48'3 6.9
2018-May-25 20:30N 54°53' W 005°43'1019.1
2018-May-25 20:00N 54°57' W 005°29'1019.2
2018-May-25 19:30N 55°01' W 005°13'713.7
2018-May-25 19:00N 54°58' W 005°02'1 1.9
2018-May-25 18:30N 54°58' W 005°01'0 0.0
2018-May-25 18:00N 54°58' W 005°01'0 0.0
2018-May-25 17:30N 54°58' W 005°01'510.9
2018-May-25 17:00N 55°01' W 005°08'816.8
2018-May-25 16:30N 54°58' W 005°21'918.6
2018-May-25 16:00N 54°54' W 005°36'815.4
2018-May-25 15:30N 54°51' W 005°48'0 0.1
2018-May-25 15:00N 54°51' W 005°48'0 0.0
2018-May-25 14:30N 54°51' W 005°48'714.1
2018-May-25 14:00N 54°55' W 005°38'1020.2
2018-May-25 13:30N 54°59' W 005°22'1018.4
2018-May-25 12:57N 55°01' W 005°04'4 8.0
2018-May-25 12:31N 54°58' W 005°01'0 0.0
2018-May-25 12:00N 54°58' W 005°01'0 0.0
2018-May-25 11:28N 54°58' W 005°01'5 9.9
2018-May-25 10:55N 55°02' W 005°08'820.6
2018-May-25 10:31N 54°58' W 005°21'1019.9
2018-May-25 10:01N 54°54' W 005°37'713.8
2018-May-25 09:30N 54°51' W 005°48'0 0.1
2018-May-25 09:00N 54°51' W 005°48'0 0.0
2018-May-25 08:30N 54°51' W 005°48'510.0
2018-May-25 08:00N 54°54' W 005°41'816.2
2018-May-25 07:30N 54°57' W 005°28'917.3
2018-May-25 07:00N 55°01' W 005°14'714.4
2018-May-25 06:30N 54°59' W 005°02'1 2.2
2018-May-25 05:55N 54°58' W 005°01'0 0.0
2018-May-25 05:19N 54°58' W 005°01'0 0.0
2018-May-25 05:00N 54°58' W 005°01'510.0
2018-May-25 04:30N 55°01' W 005°07'816.2
2018-May-25 04:00N 54°58' W 005°20'917.7
2018-May-25 03:30N 54°55' W 005°34'917.1
2018-May-25 02:59N 54°51' W 005°48'0 0.3
2018-May-25 02:28N 54°51' W 005°48'0 0.0
2018-May-25 01:52N 54°51' W 005°48'0 0.0
2018-May-25 01:22N 54°51' W 005°48'0 0.0
2018-May-25 00:59N 54°51' W 005°48'4 8.9
2018-May-25 00:30N 54°53' W 005°42'918.4
2018-May-25 00:00N 54°57' W 005°27'917.8
2018-May-24 23:30N 55°01' W 005°13'714.2
2018-May-24 23:00N 54°58' W 005°02'1 0.5
2018-May-24 21:18N 54°58' W 005°01'0 0.3
2018-May-24 20:58N 54°58' W 005°01'712.3
2018-May-24 20:24N 55°01' W 005°12'718.0
2018-May-24 20:01N 54°58' W 005°23'917.7
2018-May-24 19:31N 54°54' W 005°37'714.1
2018-May-24 19:00N 54°51' W 005°48'0 0.1
2018-May-24 18:30N 54°51' W 005°48'0 0.0
2018-May-24 18:00N 54°51' W 005°48'0 0.0
2018-May-24 17:30N 54°51' W 005°48'4 7.9
2018-May-24 17:00N 54°53' W 005°42'917.5
2018-May-24 16:30N 54°57' W 005°29'917.9
2018-May-24 16:00N 55°00' W 005°14'713.4
2018-May-24 15:30N 54°59' W 005°03'1 2.8
2018-May-24 15:00N 54°58' W 005°01'0 0.0
2018-May-24 14:30N 54°58' W 005°01'5 9.3
2018-May-24 13:58N 55°01' W 005°07'919.3
2018-May-24 13:30N 54°58' W 005°21'11 2.5
2018-May-24 08:59N 54°58' W 005°01'0 0.0
2018-May-24 08:30N 54°58' W 005°01'5 8.9
2018-May-24 07:57N 55°02' W 005°06'716.6
2018-May-24 07:30N 54°59' W 005°18'816.7
2018-May-24 07:00N 54°55' W 005°31'918.2
2018-May-24 06:30N 54°52' W 005°46'1 2.4
2018-May-24 05:53N 54°51' W 005°48'0 0.0
2018-May-24 05:29N 54°51' W 005°48'0 0.0
2018-May-24 05:00N 54°51' W 005°48'4 8.8
2018-May-24 04:30N 54°53' W 005°42'918.4
2018-May-24 04:00N 54°57' W 005°27'1019.1
2018-May-24 03:30N 55°01' W 005°12'713.7
2018-May-24 03:00N 54°58' W 005°02'0 0.3
2018-May-24 01:39N 54°58' W 005°01'0 0.0
2018-May-24 01:12N 54°58' W 005°01'0 0.6
2018-May-24 01:00N 54°58' W 005°01'612.1
2018-May-24 00:30N 55°01' W 005°09'918.5
2018-May-24 00:00N 54°57' W 005°23'917.8
2018-May-23 23:31N 54°53' W 005°38'612.6
2018-May-23 23:00N 54°51' W 005°48'0 0.1
2018-May-23 22:28N 54°51' W 005°48'0 0.0
2018-May-23 21:58N 54°51' W 005°48'0 0.0
2018-May-23 21:28N 54°51' W 005°48'0 0.0
2018-May-23 20:58N 54°51' W 005°48'2 4.4
2018-May-23 20:31N 54°52' W 005°46'918.7
2018-May-23 20:01N 54°56' W 005°31'918.3
2018-May-23 19:30N 55°00' W 005°16'813.9
2018-May-23 18:55N 54°59' W 005°02'1 2.9
2018-May-23 18:29N 54°58' W 005°01'0 0.0
2018-May-23 18:00N 54°58' W 005°01'0 0.0
2018-May-23 17:30N 54°58' W 005°01'5 9.7
2018-May-23 16:57N 55°02' W 005°08'817.0
2018-May-23 16:30N 54°58' W 005°19'918.1
2018-May-23 16:00N 54°55' W 005°34'917.5
2018-May-23 15:31N 54°51' W 005°48'0 0.6
2018-May-23 14:56N 54°51' W 005°48'0 0.0
2018-May-23 14:26N 54°51' W 005°48'4 8.4
2018-May-23 14:00N 54°53' W 005°43'918.0
2018-May-23 13:30N 54°57' W 005°29'918.1
2018-May-23 12:59N 55°01' W 005°14'713.8
2018-May-23 12:30N 54°59' W 005°03'2 3.1
2018-May-23 11:59N 54°58' W 005°01'0 0.1
2018-May-23 11:26N 54°58' W 005°01'611.5
2018-May-23 10:57N 55°01' W 005°08'1020.5
2018-May-23 10:28N 54°57' W 005°24'920.0
2018-May-23 10:00N 54°53' W 005°39'611.7
2018-May-23 09:30N 54°51' W 005°48'0 0.0
2018-May-23 09:00N 54°51' W 005°48'0 0.0
2018-May-23 08:30N 54°51' W 005°48'510.2
2018-May-23 08:00N 54°54' W 005°41'816.5
2018-May-23 07:30N 54°57' W 005°28'917.1
2018-May-23 07:00N 55°01' W 005°14'714.0
2018-May-23 06:30N 54°59' W 005°02'1 0.7
2018-May-23 05:07N 54°58' W 005°01'0 0.2
2018-May-23 04:57N 54°58' W 005°01'511.7
2018-May-23 04:30N 55°02' W 005°07'815.5
2018-May-23 04:00N 54°59' W 005°19'917.3
2018-May-23 03:30N 54°55' W 005°32'917.9
2018-May-23 03:00N 54°52' W 005°47'1 2.2
2018-May-23 02:27N 54°51' W 005°48'0 0.0
2018-May-23 02:00N 54°51' W 005°48'0 0.0
2018-May-23 01:27N 54°51' W 005°48'0 0.0
2018-May-23 01:00N 54°51' W 005°48'5 9.3
2018-May-23 00:30N 54°53' W 005°41'816.1
2018-May-23 00:00N 54°57' W 005°29'815.6
2018-May-22 23:31N 55°00' W 005°17'813.8
2018-May-22 22:56N 54°59' W 005°03'2 4.0
2018-May-22 22:30N 54°58' W 005°01'0 0.0
2018-May-22 22:01N 54°58' W 005°01'0 0.0
2018-May-22 21:30N 54°58' W 005°01'0 0.0
2018-May-22 21:00N 54°58' W 005°01'610.6
2018-May-22 20:29N 55°01' W 005°08'918.7
2018-May-22 20:00N 54°58' W 005°22'918.0
2018-May-22 19:30N 54°55' W 005°37'714.3
2018-May-22 19:00N 54°51' W 005°48'0 0.8
2018-May-22 18:30N 54°51' W 005°48'0 0.0
2018-May-22 18:00N 54°51' W 005°48'0 0.0
2018-May-22 17:30N 54°51' W 005°48'612.0
2018-May-22 17:01N 54°54' W 005°39'816.2
2018-May-22 16:31N 54°58' W 005°27'816.8
2018-May-22 16:01N 55°01' W 005°13'713.4
2018-May-22 15:31N 54°59' W 005°02'1 2.1
2018-May-22 14:59N 54°58' W 005°01'0 0.0
2018-May-22 14:30N 54°58' W 005°01'610.7
2018-May-22 13:56N 55°02' W 005°09'818.8
2018-May-22 13:30N 54°58' W 005°21'1020.4
2018-May-22 13:00N 54°54' W 005°38'612.9
2018-May-22 12:30N 54°51' W 005°48'0 0.0
2018-May-22 12:00N 54°51' W 005°48'0 0.0
2018-May-22 11:30N 54°51' W 005°48'611.6
2018-May-22 11:00N 54°54' W 005°39'816.7
2018-May-22 10:30N 54°58' W 005°27'916.8
2018-May-22 09:59N 55°01' W 005°13'713.6
2018-May-22 09:30N 54°59' W 005°02'1 1.9
2018-May-22 08:58N 54°58' W 005°01'0 0.0
2018-May-22 08:30N 54°58' W 005°01'610.2
2018-May-22 07:56N 55°02' W 005°08'818.3
2018-May-22 07:30N 54°58' W 005°21'817.1
2018-May-22 07:00N 54°55' W 005°35'816.3
2018-May-22 06:30N 54°51' W 005°48'1 1.2
2018-May-22 06:00N 54°51' W 005°48'0 0.0
2018-May-22 05:30N 54°51' W 005°48'0 0.0
2018-May-22 05:00N 54°51' W 005°48'611.6
2018-May-22 04:30N 54°54' W 005°39'918.0
2018-May-22 04:00N 54°58' W 005°25'917.9
2018-May-22 03:30N 55°01' W 005°11'713.2
2018-May-22 02:59N 54°58' W 005°01'0 0.0
2018-May-22 02:27N 54°58' W 005°01'0 0.0
2018-May-22 02:00N 54°58' W 005°01'0 0.0
2018-May-22 01:30N 54°58' W 005°01'0 0.1
2018-May-22 00:59N 54°58' W 005°01'610.7
2018-May-22 00:26N 55°02' W 005°09'716.5
2018-May-22 00:01N 54°58' W 005°20'917.8
2018-May-21 23:31N 54°55' W 005°34'917.0
2018-May-21 23:00N 54°51' W 005°48'0 0.7
2018-May-21 22:29N 54°51' W 005°48'0 0.0
2018-May-21 21:56N 54°51' W 005°48'0 0.0
2018-May-21 21:29N 54°51' W 005°48'0 0.0
2018-May-21 20:56N 54°51' W 005°48'3 7.3
2018-May-21 20:31N 54°53' W 005°44'1017.7
2018-May-21 19:56N 54°57' W 005°28'817.2
2018-May-21 19:29N 55°00' W 005°15'813.8
2018-May-21 18:56N 54°59' W 005°02'1 3.0
2018-May-21 18:29N 54°58' W 005°01'0 0.0
2018-May-21 17:57N 54°58' W 005°01'0 0.2
2018-May-21 17:23N 54°58' W 005°01'513.1
2018-May-21 16:59N 55°02' W 005°08'919.9
2018-May-21 16:30N 54°58' W 005°22'1019.9
2018-May-21 16:00N 54°54' W 005°38'612.4
2018-May-21 15:30N 54°51' W 005°48'0 0.0
2018-May-21 15:00N 54°51' W 005°48'0 0.0
2018-May-21 14:30N 54°51' W 005°48'5 9.9
2018-May-21 14:00N 54°53' W 005°41'917.1
2018-May-21 13:30N 54°57' W 005°27'917.4
2018-May-21 13:01N 55°01' W 005°13'612.4
2018-May-21 12:30N 54°59' W 005°03'2 1.8
2018-May-21 11:35N 54°58' W 005°01'0 0.4
2018-May-21 11:29N 54°58' W 005°01'511.0
2018-May-21 11:00N 55°01' W 005°08'917.5
2018-May-21 10:30N 54°58' W 005°22'1018.8
2018-May-21 10:00N 54°54' W 005°37'713.8
2018-May-21 09:29N 54°51' W 005°48'0 0.1
2018-May-21 08:59N 54°51' W 005°48'0 0.0
2018-May-21 08:29N 54°51' W 005°48'4 8.6
2018-May-21 08:01N 54°53' W 005°42'917.0
2018-May-21 07:30N 54°57' W 005°29'816.3
2018-May-21 07:00N 55°00' W 005°16'714.2
2018-May-21 06:29N 54°59' W 005°03'2 4.1
2018-May-21 06:00N 54°58' W 005°01'0 0.0
2018-May-21 05:30N 54°58' W 005°01'0 0.0
2018-May-21 05:00N 54°58' W 005°01'610.1
2018-May-21 04:26N 55°01' W 005°08'716.5
2018-May-21 04:00N 54°59' W 005°20'816.8
2018-May-21 03:30N 54°55' W 005°33'917.1
2018-May-21 02:59N 54°52' W 005°47'1 2.0
2018-May-21 02:29N 54°51' W 005°48'0 0.0
2018-May-21 01:53N 54°51' W 005°48'0 0.0
2018-May-21 01:26N 54°51' W 005°48'0 0.0
2018-May-21 00:59N 54°51' W 005°48'4 8.7
2018-May-21 00:30N 54°53' W 005°42'815.9
2018-May-21 00:00N 54°57' W 005°29'815.8
2018-May-20 23:29N 55°00' W 005°17'814.0
2018-May-20 22:55N 54°59' W 005°03'2 4.2
2018-May-20 22:30N 54°58' W 005°01'0 0.0
2018-May-20 21:42N 54°58' W 005°01'0 0.0
2018-May-20 21:30N 54°58' W 005°01'0 0.2
2018-May-20 21:01N 54°58' W 005°01'811.8
2018-May-20 20:22N 54°60' W 005°14'617.9
2018-May-20 20:00N 54°57' W 005°24'917.9
2018-May-20 19:30N 54°54' W 005°38'612.4
2018-May-20 19:00N 54°51' W 005°48'0 0.0
2018-May-20 18:30N 54°51' W 005°48'0 0.0
2018-May-20 18:00N 54°51' W 005°48'0 0.3
2018-May-20 17:30N 54°51' W 005°48'916.8
2018-May-20 16:57N 54°57' W 005°35'818.4
2018-May-20 16:31N 54°59' W 005°22'1114.7
2018-May-20 15:47N 54°59' W 005°03'2 5.8
2018-May-20 15:28N 54°58' W 005°01'0 0.0
2018-May-20 15:00N 54°58' W 005°01'1 2.4
2018-May-20 14:30N 54°59' W 005°02'714.8
2018-May-20 14:00N 54°60' W 005°15'1121.3
2018-May-20 13:30N 54°55' W 005°31'1020.0
2018-May-20 13:00N 54°51' W 005°48'0 0.8
2018-May-20 12:30N 54°51' W 005°48'0 0.0
2018-May-20 12:00N 54°51' W 005°48'0 0.0
2018-May-20 11:30N 54°51' W 005°48'0 0.0
2018-May-20 11:00N 54°51' W 005°48'0 0.0
2018-May-20 10:30N 54°51' W 005°48'0 0.0
2018-May-20 10:00N 54°51' W 005°48'0 0.0
2018-May-20 09:30N 54°51' W 005°48'0 0.0
2018-May-20 09:00N 54°51' W 005°48'0 0.0
2018-May-20 08:30N 54°51' W 005°48'5 9.1
2018-May-20 08:00N 54°53' W 005°41'917.6
2018-May-20 07:30N 54°57' W 005°28'917.3
2018-May-20 07:00N 55°01' W 005°14'714.7
2018-May-20 06:31N 54°58' W 005°02'1 1.8
2018-May-20 06:00N 54°58' W 005°01'0 0.0
2018-May-20 05:07N 54°58' W 005°01'0 0.0
2018-May-20 04:27N 54°58' W 005°01'0 0.0
2018-May-20 03:23N 54°58' W 005°01'0 0.0
2018-May-20 03:00N 54°58' W 005°01'0 0.0
2018-May-20 02:29N 54°58' W 005°01'0 0.0
2018-May-20 02:00N 54°58' W 005°01'0 0.0
2018-May-20 01:31N 54°58' W 005°01'0 0.0
2018-May-20 01:00N 54°58' W 005°01'0 0.0
2018-May-20 00:29N 54°58' W 005°01'0 0.0
2018-May-20 00:01N 54°58' W 005°01'0 0.0
2018-May-19 23:31N 54°58' W 005°01'0 0.0
2018-May-19 23:00N 54°58' W 005°01'0 0.0
2018-May-19 22:30N 54°58' W 005°01'0 0.0
2018-May-19 21:59N 54°58' W 005°01'5 7.8
2018-May-19 21:18N 55°02' W 005°08'619.4
2018-May-19 21:00N 54°60' W 005°17'1020.9
2018-May-19 20:30N 54°55' W 005°33'916.7
2018-May-19 19:57N 54°51' W 005°48'0 0.7
2018-May-19 19:30N 54°51' W 005°48'0 0.0
2018-May-19 19:00N 54°51' W 005°48'0 0.0
2018-May-19 18:30N 54°51' W 005°48'0 0.0
2018-May-19 18:00N 54°51' W 005°48'0 0.0
2018-May-19 17:30N 54°51' W 005°48'4 7.7
2018-May-19 17:00N 54°53' W 005°43'918.2
2018-May-19 16:30N 54°57' W 005°29'917.3
2018-May-19 16:00N 55°01' W 005°15'713.9
2018-May-19 15:30N 54°59' W 005°03'2 3.4
2018-May-19 14:59N 54°58' W 005°01'0 0.0
2018-May-19 14:30N 54°58' W 005°01'5 9.4
2018-May-19 14:00N 55°02' W 005°06'917.7
2018-May-19 13:30N 54°59' W 005°20'917.8
2018-May-19 13:00N 54°55' W 005°34'917.2
2018-May-19 12:30N 54°51' W 005°48'0 0.9
2018-May-19 12:01N 54°51' W 005°48'0 0.0
2018-May-19 11:30N 54°51' W 005°48'4 8.5
2018-May-19 11:00N 54°53' W 005°42'917.7
2018-May-19 10:30N 54°57' W 005°28'918.4
2018-May-19 10:00N 55°01' W 005°13'713.3
2018-May-19 09:28N 54°58' W 005°02'1 0.6
2018-May-19 08:28N 54°58' W 005°01'4 8.5
2018-May-19 07:58N 55°01' W 005°05'816.3
2018-May-19 07:30N 54°60' W 005°18'918.1
2018-May-19 07:00N 54°55' W 005°32'918.0
2018-May-19 06:29N 54°52' W 005°47'1 2.2
2018-May-19 05:55N 54°51' W 005°48'0 0.0
2018-May-19 05:28N 54°51' W 005°48'0 0.0
2018-May-19 05:00N 54°51' W 005°48'5 9.5
2018-May-19 04:30N 54°53' W 005°41'816.4
2018-May-19 04:00N 54°57' W 005°28'917.1
2018-May-19 03:30N 55°01' W 005°15'714.4
2018-May-19 03:00N 54°59' W 005°03'1 2.7
2018-May-19 02:27N 54°58' W 005°01'0 0.0
2018-May-19 02:00N 54°58' W 005°01'0 0.0
2018-May-19 01:30N 54°58' W 005°01'0 0.0
2018-May-19 01:01N 54°58' W 005°01'510.2
2018-May-19 00:30N 55°02' W 005°07'816.4
2018-May-19 00:00N 54°59' W 005°20'917.7
2018-May-18 23:30N 54°55' W 005°34'916.8
2018-May-18 23:00N 54°51' W 005°48'0 0.3
2018-May-18 22:30N 54°51' W 005°48'0 0.0
2018-May-18 22:00N 54°51' W 005°48'0 0.0
2018-May-18 21:30N 54°51' W 005°48'0 0.0
2018-May-18 21:00N 54°51' W 005°48'613.0
2018-May-18 20:30N 54°55' W 005°40'917.8
2018-May-18 20:00N 55°00' W 005°27'918.3
2018-May-18 19:30N 55°02' W 005°11'713.6
2018-May-18 19:01N 54°58' W 005°01'0 0.2
2018-May-18 17:22N 54°58' W 005°01'511.2
2018-May-18 16:53N 55°02' W 005°08'718.8
2018-May-18 16:30N 54°59' W 005°19'918.3
2018-May-18 16:00N 54°55' W 005°34'917.2
2018-May-18 15:30N 54°52' W 005°48'1 1.8
2018-May-18 15:00N 54°51' W 005°48'0 0.0
2018-May-18 14:30N 54°51' W 005°48'713.5
2018-May-18 14:00N 54°54' W 005°38'918.6
2018-May-18 13:30N 54°59' W 005°24'917.1
2018-May-18 13:00N 55°02' W 005°10'714.2
2018-May-18 12:30N 54°58' W 005°01'0 0.0
2018-May-18 12:00N 54°58' W 005°01'0 0.0
2018-May-18 11:30N 54°58' W 005°01'611.7
2018-May-18 11:00N 55°01' W 005°09'817.0
2018-May-18 10:30N 54°58' W 005°22'917.8
2018-May-18 10:00N 54°54' W 005°37'714.5
2018-May-18 09:30N 54°51' W 005°48'0 0.1
2018-May-18 09:00N 54°51' W 005°48'0 0.0
2018-May-18 08:30N 54°51' W 005°48'5 9.9
2018-May-18 08:01N 54°54' W 005°41'917.3
2018-May-18 07:31N 54°57' W 005°27'918.1
2018-May-18 07:01N 55°01' W 005°13'713.7
2018-May-18 06:31N 54°58' W 005°02'1 0.9
2018-May-18 05:56N 54°58' W 005°01'0 0.0
2018-May-18 05:29N 54°58' W 005°01'0 0.0
2018-May-18 05:00N 54°58' W 005°01'510.1
2018-May-18 04:30N 55°01' W 005°07'816.3
2018-May-18 04:01N 54°59' W 005°20'917.7
2018-May-18 03:30N 54°55' W 005°34'917.0
2018-May-18 03:00N 54°52' W 005°48'1 1.5
2018-May-18 02:30N 54°51' W 005°48'0 0.0
2018-May-18 02:00N 54°51' W 005°48'0 0.0
2018-May-18 01:30N 54°51' W 005°48'0 0.0
2018-May-18 01:00N 54°51' W 005°48'4 8.9
2018-May-18 00:31N 54°53' W 005°41'816.9
2018-May-18 00:00N 54°57' W 005°28'917.0
2018-May-17 23:30N 55°01' W 005°15'714.3
2018-May-17 22:59N 54°59' W 005°02'1 2.3
2018-May-17 22:30N 54°58' W 005°01'0 0.0
2018-May-17 21:57N 54°58' W 005°01'0 0.0
2018-May-17 21:30N 54°58' W 005°01'0 0.1
2018-May-17 21:00N 54°58' W 005°01'5 9.1
2018-May-17 20:25N 55°01' W 005°08'716.5
2018-May-17 20:00N 54°59' W 005°19'918.3
2018-May-17 19:30N 54°55' W 005°33'918.0
2018-May-17 19:00N 54°51' W 005°48'1 1.0
2018-May-17 18:27N 54°51' W 005°48'0 0.0
2018-May-17 18:00N 54°51' W 005°48'0 0.0
2018-May-17 17:31N 54°51' W 005°48'815.2
2018-May-17 17:01N 54°55' W 005°37'918.3
2018-May-17 16:31N 54°59' W 005°22'917.9
2018-May-17 16:01N 55°02' W 005°07'510.8
2018-May-17 15:30N 54°58' W 005°01'0 0.0
2018-May-17 14:50N 54°58' W 005°01'0 0.0
2018-May-17 14:30N 54°58' W 005°01'611.1
2018-May-17 13:58N 55°02' W 005°09'1021.3
2018-May-17 13:31N 54°57' W 005°24'1020.1
2018-May-17 13:01N 54°53' W 005°40'510.2
2018-May-17 12:30N 54°51' W 005°48'0 0.0
2018-May-17 12:00N 54°51' W 005°48'0 0.0
2018-May-17 11:30N 54°51' W 005°48'612.6
2018-May-17 11:00N 54°54' W 005°39'1019.7
2018-May-17 10:31N 54°58' W 005°23'1215.8
2018-May-17 09:46N 54°59' W 005°03'1 5.4
2018-May-17 09:30N 54°58' W 005°01'0 0.0
2018-May-17 09:00N 54°58' W 005°01'0 0.0
2018-May-17 08:30N 54°58' W 005°01'510.2
2018-May-17 08:00N 55°02' W 005°07'816.4
2018-May-17 07:31N 54°58' W 005°20'917.3
2018-May-17 07:01N 54°55' W 005°34'916.9
2018-May-17 06:29N 54°51' W 005°48'0 0.4
2018-May-17 05:58N 54°51' W 005°48'0 0.0
2018-May-17 05:28N 54°51' W 005°48'0 0.0
2018-May-17 05:00N 54°51' W 005°48'510.4
2018-May-17 04:30N 54°54' W 005°40'918.2
2018-May-17 04:00N 54°58' W 005°26'917.5
2018-May-17 03:30N 55°01' W 005°12'714.5
2018-May-17 03:00N 54°58' W 005°01'0 0.0
2018-May-17 02:30N 54°58' W 005°01'0 0.0
2018-May-17 02:00N 54°58' W 005°01'0 0.0
2018-May-17 01:29N 54°58' W 005°01'0 0.0
2018-May-17 01:00N 54°58' W 005°01'6 9.6
2018-May-17 00:24N 55°02' W 005°08'718.3
2018-May-17 00:00N 54°58' W 005°20'917.9
2018-May-16 23:30N 54°55' W 005°34'917.5
2018-May-16 23:01N 54°51' W 005°48'0 0.8
2018-May-16 22:30N 54°51' W 005°48'0 0.0
2018-May-16 22:01N 54°51' W 005°48'0 0.0
2018-May-16 21:30N 54°51' W 005°48'0 0.0
2018-May-16 21:00N 54°51' W 005°48'510.7
2018-May-16 20:30N 54°54' W 005°40'817.0
2018-May-16 20:00N 54°57' W 005°27'917.7
2018-May-16 19:30N 55°01' W 005°13'713.1
2018-May-16 19:01N 54°59' W 005°02'1 2.1
2018-May-16 18:30N 54°58' W 005°01'0 0.0
2018-May-16 18:00N 54°58' W 005°01'0 0.0
2018-May-16 17:28N 54°58' W 005°01'5 9.2
2018-May-16 16:56N 55°02' W 005°06'817.7
2018-May-16 16:31N 54°58' W 005°18'918.7
2018-May-16 16:00N 54°55' W 005°34'917.5
2018-May-16 15:30N 54°51' W 005°48'1 1.1
2018-May-16 15:00N 54°51' W 005°48'0 0.0
2018-May-16 14:30N 54°51' W 005°48'5 9.5
2018-May-16 14:01N 54°54' W 005°41'1020.5
2018-May-16 13:31N 54°59' W 005°26'  
Track history (hours):
 
Tides and Currents Weather Stations Pressure Air Temp Water Temp Dewpoint Dewpoint Depression Visibility Wind Speed Wind Dir Waves Ship Positions

European Causeway

Operator: P & O Irish Sea

Last reported at 2018-May-26 13:29 UTC. Time now 2018-May-26 13:50 UTC.
Position N 54°37' W 005°54'.

Length 145 m; draft 5.5 m.

Type: Ship (hazmat cat A). MMSI: 311027000.

Date/timePositionNaut miles runAvg speedWind from/ knotsBaromVisibWave heightAir tempDewpointWater temp
2018-May-26 13:29N 54°37' W 005°54'0 0.0
2018-May-26 13:00N 54°37' W 005°54'0 0.0
2018-May-26 12:27N 54°37' W 005°54'0 0.0
2018-May-26 11:58N 54°37' W 005°54'0 0.0
2018-May-26 11:29N 54°37' W 005°54'0 0.0
2018-May-26 11:00N 54°37' W 005°54'0 0.0
2018-May-26 10:28N 54°37' W 005°54'0 0.0
2018-May-26 09:58N 54°37' W 005°54'0 0.0
2018-May-26 09:28N 54°37' W 005°54'0 0.0
2018-May-26 08:59N 54°37' W 005°54'0 0.0
2018-May-26 08:30N 54°37' W 005°54'0 0.0
2018-May-26 07:59N 54°37' W 005°54'0 0.4
2018-May-26 07:30N 54°37' W 005°53'4 8.2
2018-May-26 07:00N 54°41' W 005°49'4 8.4
2018-May-26 06:31N 54°43' W 005°43'9 8.5
2018-May-26 05:29N 54°51' W 005°48'0 0.0
2018-May-26 05:00N 54°51' W 005°48'1 2.7
2018-May-26 04:30N 54°52' W 005°47'1019.7
2018-May-26 03:59N 54°56' W 005°31'1121.8
2018-May-26 03:30N 55°01' W 005°14'714.8
2018-May-26 03:00N 54°58' W 005°02'1 1.1
2018-May-26 02:25N 54°58' W 005°01'0 0.0
2018-May-26 01:55N 54°58' W 005°01'0 0.0
2018-May-26 01:07N 54°58' W 005°01'0 0.1
2018-May-26 00:49N 54°58' W 005°01'510.4
2018-May-26 00:20N 55°02' W 005°07'619.5
2018-May-26 00:00N 54°59' W 005°17'1020.2
2018-May-25 23:30N 54°55' W 005°33'918.1
2018-May-25 23:00N 54°52' W 005°48'1 1.4
2018-May-25 22:29N 54°51' W 005°48'0 0.0
2018-May-25 21:59N 54°51' W 005°48'0 0.0
2018-May-25 21:29N 54°51' W 005°48'0 0.0
2018-May-25 20:59N 54°51' W 005°48'3 6.9
2018-May-25 20:30N 54°53' W 005°43'1019.1
2018-May-25 20:00N 54°57' W 005°29'1019.2
2018-May-25 19:30N 55°01' W 005°13'713.7
2018-May-25 19:00N 54°58' W 005°02'1 1.9
2018-May-25 18:30N 54°58' W 005°01'0 0.0
2018-May-25 18:00N 54°58' W 005°01'0 0.0
2018-May-25 17:30N 54°58' W 005°01'510.9
2018-May-25 17:00N 55°01' W 005°08'816.8
2018-May-25 16:30N 54°58' W 005°21'918.6
2018-May-25 16:00N 54°54' W 005°36'815.4
2018-May-25 15:30N 54°51' W 005°48'0 0.1
2018-May-25 15:00N 54°51' W 005°48'0 0.0
2018-May-25 14:30N 54°51' W 005°48'714.1
2018-May-25 14:00N 54°55' W 005°38'1020.2
2018-May-25 13:30N 54°59' W 005°22'1018.4
2018-May-25 12:57N 55°01' W 005°04'4 8.0
2018-May-25 12:31N 54°58' W 005°01'0 0.0
2018-May-25 12:00N 54°58' W 005°01'0 0.0
2018-May-25 11:28N 54°58' W 005°01'5 9.9
2018-May-25 10:55N 55°02' W 005°08'820.6
2018-May-25 10:31N 54°58' W 005°21'1019.9
2018-May-25 10:01N 54°54' W 005°37'713.8
2018-May-25 09:30N 54°51' W 005°48'0 0.1
2018-May-25 09:00N 54°51' W 005°48'0 0.0
2018-May-25 08:30N 54°51' W 005°48'510.0
2018-May-25 08:00N 54°54' W 005°41'816.2
2018-May-25 07:30N 54°57' W 005°28'917.3
2018-May-25 07:00N 55°01' W 005°14'714.4
2018-May-25 06:30N 54°59' W 005°02'1 2.2
2018-May-25 05:55N 54°58' W 005°01'0 0.0
2018-May-25 05:19N 54°58' W 005°01'0 0.0
2018-May-25 05:00N 54°58' W 005°01'510.0
2018-May-25 04:30N 55°01' W 005°07'816.2
2018-May-25 04:00N 54°58' W 005°20'917.7
2018-May-25 03:30N 54°55' W 005°34'917.1
2018-May-25 02:59N 54°51' W 005°48'0 0.3
2018-May-25 02:28N 54°51' W 005°48'0 0.0
2018-May-25 01:52N 54°51' W 005°48'0 0.0
2018-May-25 01:22N 54°51' W 005°48'0 0.0
2018-May-25 00:59N 54°51' W 005°48'4 8.9
2018-May-25 00:30N 54°53' W 005°42'918.4
2018-May-25 00:00N 54°57' W 005°27'917.8
2018-May-24 23:30N 55°01' W 005°13'714.2
2018-May-24 23:00N 54°58' W 005°02'1 0.5
2018-May-24 21:18N 54°58' W 005°01'0 0.3
2018-May-24 20:58N 54°58' W 005°01'712.3
2018-May-24 20:24N 55°01' W 005°12'718.0
2018-May-24 20:01N 54°58' W 005°23'917.7
2018-May-24 19:31N 54°54' W 005°37'714.1
2018-May-24 19:00N 54°51' W 005°48'0 0.1
2018-May-24 18:30N 54°51' W 005°48'0 0.0
2018-May-24 18:00N 54°51' W 005°48'0 0.0
2018-May-24 17:30N 54°51' W 005°48'4 7.9
2018-May-24 17:00N 54°53' W 005°42'917.5
2018-May-24 16:30N 54°57' W 005°29'917.9
2018-May-24 16:00N 55°00' W 005°14'713.4
2018-May-24 15:30N 54°59' W 005°03'1 2.8
2018-May-24 15:00N 54°58' W 005°01'0 0.0
2018-May-24 14:30N 54°58' W 005°01'5 9.3
2018-May-24 13:58N 55°01' W 005°07'919.3
2018-May-24 13:30N 54°58' W 005°21'11 2.5
2018-May-24 08:59N 54°58' W 005°01'0 0.0
2018-May-24 08:30N 54°58' W 005°01'5 8.9
2018-May-24 07:57N 55°02' W 005°06'716.6
2018-May-24 07:30N 54°59' W 005°18'816.7
2018-May-24 07:00N 54°55' W 005°31'918.2
2018-May-24 06:30N 54°52' W 005°46'1 2.4
2018-May-24 05:53N 54°51' W 005°48'0 0.0
2018-May-24 05:29N 54°51' W 005°48'0 0.0
2018-May-24 05:00N 54°51' W 005°48'4 8.8
2018-May-24 04:30N 54°53' W 005°42'918.4
2018-May-24 04:00N 54°57' W 005°27'1019.1
2018-May-24 03:30N 55°01' W 005°12'713.7
2018-May-24 03:00N 54°58' W 005°02'0 0.3
2018-May-24 01:39N 54°58' W 005°01'0 0.0
2018-May-24 01:12N 54°58' W 005°01'0 0.6
2018-May-24 01:00N 54°58' W 005°01'612.1
2018-May-24 00:30N 55°01' W 005°09'918.5
2018-May-24 00:00N 54°57' W 005°23'917.8
2018-May-23 23:31N 54°53' W 005°38'612.6
2018-May-23 23:00N 54°51' W 005°48'0 0.1
2018-May-23 22:28N 54°51' W 005°48'0 0.0
2018-May-23 21:58N 54°51' W 005°48'0 0.0
2018-May-23 21:28N 54°51' W 005°48'0 0.0
2018-May-23 20:58N 54°51' W 005°48'2 4.4
2018-May-23 20:31N 54°52' W 005°46'918.7
2018-May-23 20:01N 54°56' W 005°31'918.3
2018-May-23 19:30N 55°00' W 005°16'813.9
2018-May-23 18:55N 54°59' W 005°02'1 2.9
2018-May-23 18:29N 54°58' W 005°01'0 0.0
2018-May-23 18:00N 54°58' W 005°01'0 0.0
2018-May-23 17:30N 54°58' W 005°01'5 9.7
2018-May-23 16:57N 55°02' W 005°08'817.0
2018-May-23 16:30N 54°58' W 005°19'918.1
2018-May-23 16:00N 54°55' W 005°34'917.5
2018-May-23 15:31N 54°51' W 005°48'0 0.6
2018-May-23 14:56N 54°51' W 005°48'0 0.0
2018-May-23 14:26N 54°51' W 005°48'4 8.4
2018-May-23 14:00N 54°53' W 005°43'918.0
2018-May-23 13:30N 54°57' W 005°29'918.1
2018-May-23 12:59N 55°01' W 005°14'713.8
2018-May-23 12:30N 54°59' W 005°03'2 3.1
2018-May-23 11:59N 54°58' W 005°01'0 0.1
2018-May-23 11:26N 54°58' W 005°01'611.5
2018-May-23 10:57N 55°01' W 005°08'1020.5
2018-May-23 10:28N 54°57' W 005°24'920.0
2018-May-23 10:00N 54°53' W 005°39'611.7
2018-May-23 09:30N 54°51' W 005°48'0 0.0
2018-May-23 09:00N 54°51' W 005°48'0 0.0
2018-May-23 08:30N 54°51' W 005°48'510.2
2018-May-23 08:00N 54°54' W 005°41'816.5
2018-May-23 07:30N 54°57' W 005°28'917.1
2018-May-23 07:00N 55°01' W 005°14'714.0
2018-May-23 06:30N 54°59' W 005°02'1 0.7
2018-May-23 05:07N 54°58' W 005°01'0 0.2
2018-May-23 04:57N 54°58' W 005°01'511.7
2018-May-23 04:30N 55°02' W 005°07'815.5
2018-May-23 04:00N 54°59' W 005°19'917.3
2018-May-23 03:30N 54°55' W 005°32'917.9
2018-May-23 03:00N 54°52' W 005°47'1 2.2
2018-May-23 02:27N 54°51' W 005°48'0 0.0
2018-May-23 02:00N 54°51' W 005°48'0 0.0
2018-May-23 01:27N 54°51' W 005°48'0 0.0
2018-May-23 01:00N 54°51' W 005°48'5 9.3
2018-May-23 00:30N 54°53' W 005°41'816.1
2018-May-23 00:00N 54°57' W 005°29'815.6
2018-May-22 23:31N 55°00' W 005°17'813.8
2018-May-22 22:56N 54°59' W 005°03'2 4.0
2018-May-22 22:30N 54°58' W 005°01'0 0.0
2018-May-22 22:01N 54°58' W 005°01'0 0.0
2018-May-22 21:30N 54°58' W 005°01'0 0.0
2018-May-22 21:00N 54°58' W 005°01'610.6
2018-May-22 20:29N 55°01' W 005°08'918.7
2018-May-22 20:00N 54°58' W 005°22'918.0
2018-May-22 19:30N 54°55' W 005°37'714.3
2018-May-22 19:00N 54°51' W 005°48'0 0.8
2018-May-22 18:30N 54°51' W 005°48'0 0.0
2018-May-22 18:00N 54°51' W 005°48'0 0.0
2018-May-22 17:30N 54°51' W 005°48'612.0
2018-May-22 17:01N 54°54' W 005°39'816.2
2018-May-22 16:31N 54°58' W 005°27'816.8
2018-May-22 16:01N 55°01' W 005°13'713.4
2018-May-22 15:31N 54°59' W 005°02'1 2.1
2018-May-22 14:59N 54°58' W 005°01'0 0.0
2018-May-22 14:30N 54°58' W 005°01'610.7
2018-May-22 13:56N 55°02' W 005°09'818.8
2018-May-22 13:30N 54°58' W 005°21'1020.4
2018-May-22 13:00N 54°54' W 005°38'612.9
2018-May-22 12:30N 54°51' W 005°48'0 0.0
2018-May-22 12:00N 54°51' W 005°48'0 0.0
2018-May-22 11:30N 54°51' W 005°48'611.6
2018-May-22 11:00N 54°54' W 005°39'816.7
2018-May-22 10:30N 54°58' W 005°27'916.8
2018-May-22 09:59N 55°01' W 005°13'713.6
2018-May-22 09:30N 54°59' W 005°02'1 1.9
2018-May-22 08:58N 54°58' W 005°01'0 0.0
2018-May-22 08:30N 54°58' W 005°01'610.2
2018-May-22 07:56N 55°02' W 005°08'818.3
2018-May-22 07:30N 54°58' W 005°21'817.1
2018-May-22 07:00N 54°55' W 005°35'816.3
2018-May-22 06:30N 54°51' W 005°48'1 1.2
2018-May-22 06:00N 54°51' W 005°48'0 0.0
2018-May-22 05:30N 54°51' W 005°48'0 0.0
2018-May-22 05:00N 54°51' W 005°48'611.6
2018-May-22 04:30N 54°54' W 005°39'918.0
2018-May-22 04:00N 54°58' W 005°25'917.9
2018-May-22 03:30N 55°01' W 005°11'713.2
2018-May-22 02:59N 54°58' W 005°01'0 0.0
2018-May-22 02:27N 54°58' W 005°01'0 0.0
2018-May-22 02:00N 54°58' W 005°01'0 0.0
2018-May-22 01:30N 54°58' W 005°01'0 0.1
2018-May-22 00:59N 54°58' W 005°01'610.7
2018-May-22 00:26N 55°02' W 005°09'716.5
2018-May-22 00:01N 54°58' W 005°20'917.8
2018-May-21 23:31N 54°55' W 005°34'917.0
2018-May-21 23:00N 54°51' W 005°48'0 0.7
2018-May-21 22:29N 54°51' W 005°48'0 0.0
2018-May-21 21:56N 54°51' W 005°48'0 0.0
2018-May-21 21:29N 54°51' W 005°48'0 0.0
2018-May-21 20:56N 54°51' W 005°48'3 7.3
2018-May-21 20:31N 54°53' W 005°44'1017.7
2018-May-21 19:56N 54°57' W 005°28'817.2
2018-May-21 19:29N 55°00' W 005°15'813.8
2018-May-21 18:56N 54°59' W 005°02'1 3.0
2018-May-21 18:29N 54°58' W 005°01'0 0.0
2018-May-21 17:57N 54°58' W 005°01'0 0.2
2018-May-21 17:23N 54°58' W 005°01'513.1
2018-May-21 16:59N 55°02' W 005°08'919.9
2018-May-21 16:30N 54°58' W 005°22'1019.9
2018-May-21 16:00N 54°54' W 005°38'612.4
2018-May-21 15:30N 54°51' W 005°48'0 0.0
2018-May-21 15:00N 54°51' W 005°48'0 0.0
2018-May-21 14:30N 54°51' W 005°48'5 9.9
2018-May-21 14:00N 54°53' W 005°41'917.1
2018-May-21 13:30N 54°57' W 005°27'917.4
2018-May-21 13:01N 55°01' W 005°13'612.4
2018-May-21 12:30N 54°59' W 005°03'2 1.8
2018-May-21 11:35N 54°58' W 005°01'0 0.4
2018-May-21 11:29N 54°58' W 005°01'511.0
2018-May-21 11:00N 55°01' W 005°08'917.5
2018-May-21 10:30N 54°58' W 005°22'1018.8
2018-May-21 10:00N 54°54' W 005°37'713.8
2018-May-21 09:29N 54°51' W 005°48'0 0.1
2018-May-21 08:59N 54°51' W 005°48'0 0.0
2018-May-21 08:29N 54°51' W 005°48'4 8.6
2018-May-21 08:01N 54°53' W 005°42'917.0
2018-May-21 07:30N 54°57' W 005°29'816.3
2018-May-21 07:00N 55°00' W 005°16'714.2
2018-May-21 06:29N 54°59' W 005°03'2 4.1
2018-May-21 06:00N 54°58' W 005°01'0 0.0
2018-May-21 05:30N 54°58' W 005°01'0 0.0
2018-May-21 05:00N 54°58' W 005°01'610.1
2018-May-21 04:26N 55°01' W 005°08'716.5
2018-May-21 04:00N 54°59' W 005°20'816.8
2018-May-21 03:30N 54°55' W 005°33'917.1
2018-May-21 02:59N 54°52' W 005°47'1 2.0
2018-May-21 02:29N 54°51' W 005°48'0 0.0
2018-May-21 01:53N 54°51' W 005°48'0 0.0
2018-May-21 01:26N 54°51' W 005°48'0 0.0
2018-May-21 00:59N 54°51' W 005°48'4 8.7
2018-May-21 00:30N 54°53' W 005°42'815.9
2018-May-21 00:00N 54°57' W 005°29'815.8
2018-May-20 23:29N 55°00' W 005°17'814.0
2018-May-20 22:55N 54°59' W 005°03'2 4.2
2018-May-20 22:30N 54°58' W 005°01'0 0.0
2018-May-20 21:42N 54°58' W 005°01'0 0.0
2018-May-20 21:30N 54°58' W 005°01'0 0.2
2018-May-20 21:01N 54°58' W 005°01'811.8
2018-May-20 20:22N 54°60' W 005°14'617.9
2018-May-20 20:00N 54°57' W 005°24'917.9
2018-May-20 19:30N 54°54' W 005°38'612.4
2018-May-20 19:00N 54°51' W 005°48'0 0.0
2018-May-20 18:30N 54°51' W 005°48'0 0.0
2018-May-20 18:00N 54°51' W 005°48'0 0.3
2018-May-20 17:30N 54°51' W 005°48'916.8
2018-May-20 16:57N 54°57' W 005°35'818.4
2018-May-20 16:31N 54°59' W 005°22'1114.7
2018-May-20 15:47N 54°59' W 005°03'2 5.8
2018-May-20 15:28N 54°58' W 005°01'0 0.0
2018-May-20 15:00N 54°58' W 005°01'1 2.4
2018-May-20 14:30N 54°59' W 005°02'714.8
2018-May-20 14:00N 54°60' W 005°15'1121.3
2018-May-20 13:30N 54°55' W 005°31'1020.0
2018-May-20 13:00N 54°51' W 005°48'0 0.8
2018-May-20 12:30N 54°51' W 005°48'0 0.0
2018-May-20 12:00N 54°51' W 005°48'0 0.0
2018-May-20 11:30N 54°51' W 005°48'0 0.0
2018-May-20 11:00N 54°51' W 005°48'0 0.0
2018-May-20 10:30N 54°51' W 005°48'0 0.0
2018-May-20 10:00N 54°51' W 005°48'0 0.0
2018-May-20 09:30N 54°51' W 005°48'0 0.0
2018-May-20 09:00N 54°51' W 005°48'0 0.0
2018-May-20 08:30N 54°51' W 005°48'5 9.1
2018-May-20 08:00N 54°53' W 005°41'917.6
2018-May-20 07:30N 54°57' W 005°28'917.3
2018-May-20 07:00N 55°01' W 005°14'714.7
2018-May-20 06:31N 54°58' W 005°02'1 1.8
2018-May-20 06:00N 54°58' W 005°01'0 0.0
2018-May-20 05:07N 54°58' W 005°01'0 0.0
2018-May-20 04:27N 54°58' W 005°01'0 0.0
2018-May-20 03:23N 54°58' W 005°01'0 0.0
2018-May-20 03:00N 54°58' W 005°01'0 0.0
2018-May-20 02:29N 54°58' W 005°01'0 0.0
2018-May-20 02:00N 54°58' W 005°01'0 0.0
2018-May-20 01:31N 54°58' W 005°01'0 0.0
2018-May-20 01:00N 54°58' W 005°01'0 0.0
2018-May-20 00:29N 54°58' W 005°01'0 0.0
2018-May-20 00:01N 54°58' W 005°01'0 0.0
2018-May-19 23:31N 54°58' W 005°01'0 0.0
2018-May-19 23:00N 54°58' W 005°01'0 0.0
2018-May-19 22:30N 54°58' W 005°01'0 0.0
2018-May-19 21:59N 54°58' W 005°01'5 7.8
2018-May-19 21:18N 55°02' W 005°08'619.4
2018-May-19 21:00N 54°60' W 005°17'1020.9
2018-May-19 20:30N 54°55' W 005°33'916.7
2018-May-19 19:57N 54°51' W 005°48'0 0.7
2018-May-19 19:30N 54°51' W 005°48'0 0.0
2018-May-19 19:00N 54°51' W 005°48'0 0.0
2018-May-19 18:30N 54°51' W 005°48'0 0.0
2018-May-19 18:00N 54°51' W 005°48'0 0.0
2018-May-19 17:30N 54°51' W 005°48'4 7.7
2018-May-19 17:00N 54°53' W 005°43'918.2
2018-May-19 16:30N 54°57' W 005°29'917.3
2018-May-19 16:00N 55°01' W 005°15'713.9
2018-May-19 15:30N 54°59' W 005°03'2 3.4
2018-May-19 14:59N 54°58' W 005°01'0 0.0
2018-May-19 14:30N 54°58' W 005°01'5 9.4
2018-May-19 14:00N 55°02' W 005°06'917.7
2018-May-19 13:30N 54°59' W 005°20'917.8
2018-May-19 13:00N 54°55' W 005°34'917.2
2018-May-19 12:30N 54°51' W 005°48'0 0.9
2018-May-19 12:01N 54°51' W 005°48'0 0.0
2018-May-19 11:30N 54°51' W 005°48'4 8.5
2018-May-19 11:00N 54°53' W 005°42'917.7
2018-May-19 10:30N 54°57' W 005°28'918.4
2018-May-19 10:00N 55°01' W 005°13'713.3
2018-May-19 09:28N 54°58' W 005°02'1 0.6
2018-May-19 08:28N 54°58' W 005°01'4 8.5
2018-May-19 07:58N 55°01' W 005°05'816.3
2018-May-19 07:30N 54°60' W 005°18'918.1
2018-May-19 07:00N 54°55' W 005°32'918.0
2018-May-19 06:29N 54°52' W 005°47'1 2.2
2018-May-19 05:55N 54°51' W 005°48'0 0.0
2018-May-19 05:28N 54°51' W 005°48'0 0.0
2018-May-19 05:00N 54°51' W 005°48'5 9.5
2018-May-19 04:30N 54°53' W 005°41'816.4
2018-May-19 04:00N 54°57' W 005°28'917.1
2018-May-19 03:30N 55°01' W 005°15'714.4
2018-May-19 03:00N 54°59' W 005°03'1 2.7
2018-May-19 02:27N 54°58' W 005°01'0 0.0
2018-May-19 02:00N 54°58' W 005°01'0 0.0
2018-May-19 01:30N 54°58' W 005°01'0 0.0
2018-May-19 01:01N 54°58' W 005°01'510.2
2018-May-19 00:30N 55°02' W 005°07'816.4
2018-May-19 00:00N 54°59' W 005°20'917.7
2018-May-18 23:30N 54°55' W 005°34'916.8
2018-May-18 23:00N 54°51' W 005°48'0 0.3
2018-May-18 22:30N 54°51' W 005°48'0 0.0
2018-May-18 22:00N 54°51' W 005°48'0 0.0
2018-May-18 21:30N 54°51' W 005°48'0 0.0
2018-May-18 21:00N 54°51' W 005°48'613.0
2018-May-18 20:30N 54°55' W 005°40'917.8
2018-May-18 20:00N 55°00' W 005°27'918.3
2018-May-18 19:30N 55°02' W 005°11'713.6
2018-May-18 19:01N 54°58' W 005°01'0 0.2
2018-May-18 17:22N 54°58' W 005°01'511.2
2018-May-18 16:53N 55°02' W 005°08'718.8
2018-May-18 16:30N 54°59' W 005°19'918.3
2018-May-18 16:00N 54°55' W 005°34'917.2
2018-May-18 15:30N 54°52' W 005°48'1 1.8
2018-May-18 15:00N 54°51' W 005°48'0 0.0
2018-May-18 14:30N 54°51' W 005°48'713.5
2018-May-18 14:00N 54°54' W 005°38'918.6
2018-May-18 13:30N 54°59' W 005°24'917.1
2018-May-18 13:00N 55°02' W 005°10'714.2
2018-May-18 12:30N 54°58' W 005°01'0 0.0
2018-May-18 12:00N 54°58' W 005°01'0 0.0
2018-May-18 11:30N 54°58' W 005°01'611.7
2018-May-18 11:00N 55°01' W 005°09'817.0
2018-May-18 10:30N 54°58' W 005°22'917.8
2018-May-18 10:00N 54°54' W 005°37'714.5
2018-May-18 09:30N 54°51' W 005°48'0 0.1
2018-May-18 09:00N 54°51' W 005°48'0 0.0
2018-May-18 08:30N 54°51' W 005°48'5 9.9
2018-May-18 08:01N 54°54' W 005°41'917.3
2018-May-18 07:31N 54°57' W 005°27'918.1
2018-May-18 07:01N 55°01' W 005°13'713.7
2018-May-18 06:31N 54°58' W 005°02'1 0.9
2018-May-18 05:56N 54°58' W 005°01'0 0.0
2018-May-18 05:29N 54°58' W 005°01'0 0.0
2018-May-18 05:00N 54°58' W 005°01'510.1
2018-May-18 04:30N 55°01' W 005°07'816.3
2018-May-18 04:01N 54°59' W 005°20'917.7
2018-May-18 03:30N 54°55' W 005°34'917.0
2018-May-18 03:00N 54°52' W 005°48'1 1.5
2018-May-18 02:30N 54°51' W 005°48'0 0.0
2018-May-18 02:00N 54°51' W 005°48'0 0.0
2018-May-18 01:30N 54°51' W 005°48'0 0.0
2018-May-18 01:00N 54°51' W 005°48'4 8.9
2018-May-18 00:31N 54°53' W 005°41'816.9
2018-May-18 00:00N 54°57' W 005°28'917.0
2018-May-17 23:30N 55°01' W 005°15'714.3
2018-May-17 22:59N 54°59' W 005°02'1 2.3
2018-May-17 22:30N 54°58' W 005°01'0 0.0
2018-May-17 21:57N 54°58' W 005°01'0 0.0
2018-May-17 21:30N 54°58' W 005°01'0 0.1
2018-May-17 21:00N 54°58' W 005°01'5 9.1
2018-May-17 20:25N 55°01' W 005°08'716.5
2018-May-17 20:00N 54°59' W 005°19'918.3
2018-May-17 19:30N 54°55' W 005°33'918.0
2018-May-17 19:00N 54°51' W 005°48'1 1.0
2018-May-17 18:27N 54°51' W 005°48'0 0.0
2018-May-17 18:00N 54°51' W 005°48'0 0.0
2018-May-17 17:31N 54°51' W 005°48'815.2
2018-May-17 17:01N 54°55' W 005°37'918.3
2018-May-17 16:31N 54°59' W 005°22'917.9
2018-May-17 16:01N 55°02' W 005°07'510.8
2018-May-17 15:30N 54°58' W 005°01'0 0.0
2018-May-17 14:50N 54°58' W 005°01'0 0.0
2018-May-17 14:30N 54°58' W 005°01'611.1
2018-May-17 13:58N 55°02' W 005°09'1021.3
2018-May-17 13:31N 54°57' W 005°24'1020.1
2018-May-17 13:01N 54°53' W 005°40'510.2
2018-May-17 12:30N 54°51' W 005°48'0 0.0
2018-May-17 12:00N 54°51' W 005°48'0 0.0
2018-May-17 11:30N 54°51' W 005°48'612.6
2018-May-17 11:00N 54°54' W 005°39'1019.7
2018-May-17 10:31N 54°58' W 005°23'1215.8
2018-May-17 09:46N 54°59' W 005°03'1 5.4
2018-May-17 09:30N 54°58' W 005°01'0 0.0
2018-May-17 09:00N 54°58' W 005°01'0 0.0
2018-May-17 08:30N 54°58' W 005°01'510.2
2018-May-17 08:00N 55°02' W 005°07'816.4
2018-May-17 07:31N 54°58' W 005°20'917.3
2018-May-17 07:01N 54°55' W 005°34'916.9
2018-May-17 06:29N 54°51' W 005°48'0 0.4
2018-May-17 05:58N 54°51' W 005°48'0 0.0
2018-May-17 05:28N 54°51' W 005°48'0 0.0
2018-May-17 05:00N 54°51' W 005°48'510.4
2018-May-17 04:30N 54°54' W 005°40'918.2
2018-May-17 04:00N 54°58' W 005°26'917.5
2018-May-17 03:30N 55°01' W 005°12'714.5
2018-May-17 03:00N 54°58' W 005°01'0 0.0
2018-May-17 02:30N 54°58' W 005°01'0 0.0
2018-May-17 02:00N 54°58' W 005°01'0 0.0
2018-May-17 01:29N 54°58' W 005°01'0 0.0
2018-May-17 01:00N 54°58' W 005°01'6 9.6
2018-May-17 00:24N 55°02' W 005°08'718.3
2018-May-17 00:00N 54°58' W 005°20'917.9
2018-May-16 23:30N 54°55' W 005°34'917.5
2018-May-16 23:01N 54°51' W 005°48'0 0.8
2018-May-16 22:30N 54°51' W 005°48'0 0.0
2018-May-16 22:01N 54°51' W 005°48'0 0.0
2018-May-16 21:30N 54°51' W 005°48'0 0.0
2018-May-16 21:00N 54°51' W 005°48'510.7
2018-May-16 20:30N 54°54' W 005°40'817.0
2018-May-16 20:00N 54°57' W 005°27'917.7
2018-May-16 19:30N 55°01' W 005°13'713.1
2018-May-16 19:01N 54°59' W 005°02'1 2.1
2018-May-16 18:30N 54°58' W 005°01'0 0.0
2018-May-16 18:00N 54°58' W 005°01'0 0.0
2018-May-16 17:28N 54°58' W 005°01'5 9.2
2018-May-16 16:56N 55°02' W 005°06'817.7
2018-May-16 16:31N 54°58' W 005°18'918.7
2018-May-16 16:00N 54°55' W 005°34'917.5
2018-May-16 15:30N 54°51' W 005°48'1 1.1
2018-May-16 15:00N 54°51' W 005°48'0 0.0
2018-May-16 14:30N 54°51' W 005°48'5 9.5
2018-May-16 14:01N 54°54' W 005°41'1020.5
2018-May-16 13:31N 54°59' W 005°26'  

Dump ship's entire track history